Time;durP1;ratioP1;P1;durP2;ratioP2;P2;SDS_P1;SDS_P2;PMS_P1;PMS_P2;Temp;Humidity;BMP_temperature;BMP_pressure;BME280_temperature;BME280_humidity;BME280_pressure;Samples;Min_cycle;Max_cycle;Signal;HPM_P1;HPM_P2
2023/01/13 00:02:14;;;;;;;;;0.00;0.00;;;;;;;;4918382;28;45584;-73
2023/01/13 00:04:40;;;;;;;;;0.00;0.00;;;;;;;;4918645;28;45295;-73
2023/01/13 00:07:05;;;;;;;;;0.00;0.00;;;;;;;;4918738;28;45314;-72
2023/01/13 00:09:30;;;;;;;;;0.00;0.00;;;;;;;;4918842;28;45270;-72
2023/01/13 00:11:55;;;;;;;;;0.00;0.00;;;;;;;;4918430;28;47504;-73
2023/01/13 00:14:20;;;;;;;;;0.00;0.00;;;;;;;;4950015;28;45295;-73
2023/01/13 00:16:46;;;;;;;;;0.00;0.00;;;;;;;;4919232;28;45329;-73
2023/01/13 00:19:11;;;;;;;;;0.00;0.00;;;;;;;;4917907;28;45400;-73
2023/01/13 00:21:36;;;;;;;;;0.00;0.00;;;;;;;;4915843;28;45470;-73
2023/01/13 00:24:01;;;;;;;;;0.00;0.00;;;;;;;;4917190;28;45481;-72
2023/01/13 00:26:29;;;;;;;;;0.00;0.00;;;;;;;;4917385;28;45413;-73
2023/01/13 00:28:57;;;;;;;;;0.00;0.00;;;;;;;;4914806;28;45299;-73
2023/01/13 00:31:23;;;;;;;;;0.00;0.00;;;;;;;;4915187;28;47020;-73
2023/01/13 00:33:49;;;;;;;;;0.00;0.00;;;;;;;;4913886;28;45352;-73
2023/01/13 00:36:16;;;;;;;;;0.00;0.00;;;;;;;;4947755;28;45340;-73
2023/01/13 00:38:44;;;;;;;;;0.00;0.00;;;;;;;;4916951;28;45349;-73
2023/01/13 00:41:13;;;;;;;;;0.00;0.00;;;;;;;;4916765;28;46302;-73
2023/01/13 00:43:39;;;;;;;;;0.75;0.00;;;;;;;;4916967;28;45315;-73
2023/01/13 00:46:05;;;;;;;;;0.00;0.00;;;;;;;;4915326;28;45383;-72
2023/01/13 00:48:31;;;;;;;;;0.00;0.00;;;;;;;;4917146;28;45431;-72
2023/01/13 00:51:01;;;;;;;;;0.00;0.00;;;;;;;;4916741;28;46102;-73
2023/01/13 00:53:27;;;;;;;;;1.00;0.00;;;;;;;;4914463;28;45326;-73
2023/01/13 00:56:05;;;;;;;;;0.00;0.00;;;;;;;;4914723;28;45473;-73
2023/01/13 00:58:31;;;;;;;;;0.00;0.00;;;;;;;;4915206;28;45437;-73
2023/01/13 01:01:04;;;;;;;;;0.00;0.00;;;;;;;;4916322;28;47129;-73
2023/01/13 01:03:30;;;;;;;;;0.00;0.00;;;;;;;;4914643;28;45678;-72
2023/01/13 01:05:56;;;;;;;;;0.00;0.00;;;;;;;;4917974;28;45446;-72
2023/01/13 01:08:21;;;;;;;;;0.00;0.00;;;;;;;;4920013;28;45389;-73
2023/01/13 01:10:46;;;;;;;;;0.00;0.00;;;;;;;;4917863;28;45433;-72
2023/01/13 01:13:15;;;;;;;;;0.00;0.00;;;;;;;;4919857;28;45425;-72
2023/01/13 01:15:42;;;;;;;;;0.00;0.00;;;;;;;;4916665;28;45373;-72
2023/01/13 01:18:07;;;;;;;;;0.00;0.00;;;;;;;;4908713;28;45473;-73
2023/01/13 01:20:32;;;;;;;;;0.00;0.00;;;;;;;;4920037;28;46200;-73
2023/01/13 01:22:57;;;;;;;;;0.00;0.00;;;;;;;;4920260;28;45469;-73
2023/01/13 01:25:22;;;;;;;;;0.00;0.00;;;;;;;;4918951;28;45322;-73
2023/01/13 01:27:48;;;;;;;;;0.00;0.00;;;;;;;;4919289;28;45378;-72
2023/01/13 01:30:13;;;;;;;;;0.00;0.00;;;;;;;;4920199;28;45563;-72
2023/01/13 01:32:38;;;;;;;;;0.00;0.00;;;;;;;;4920402;28;45421;-72
2023/01/13 01:35:04;;;;;;;;;0.00;0.00;;;;;;;;4920414;28;45382;-72
2023/01/13 01:37:29;;;;;;;;;1.00;0.00;;;;;;;;4920426;28;45726;-72
2023/01/13 01:39:54;;;;;;;;;1.00;0.00;;;;;;;;4919707;28;45437;-72
2023/01/13 01:45:17;;;;;;;;;0.00;0.00;;;;;;;;4920026;28;45580;-73
2023/01/13 01:47:44;;;;;;;;;0.00;0.00;;;;;;;;4919900;28;45241;-73
2023/01/13 01:50:09;;;;;;;;;0.00;0.00;;;;;;;;4919662;28;47350;-72
2023/01/13 01:52:39;;;;;;;;;0.00;0.00;;;;;;;;4919845;28;45398;-72
2023/01/13 01:55:04;;;;;;;;;0.50;0.00;;;;;;;;4919822;28;45386;-72
2023/01/13 01:57:35;;;;;;;;;1.00;0.00;;;;;;;;4919764;28;45470;-73
2023/01/13 02:00:00;;;;;;;;;0.00;0.00;;;;;;;;4919963;28;45318;-73
2023/01/13 02:02:27;;;;;;;;;0.00;0.00;;;;;;;;4919445;28;45380;-73
2023/01/13 02:04:53;;;;;;;;;1.50;0.00;;;;;;;;4919826;28;45327;-73
2023/01/13 02:07:24;;;;;;;;;0.50;0.00;;;;;;;;4920096;28;45381;-72
2023/01/13 02:09:50;;;;;;;;;1.00;0.00;;;;;;;;4919214;28;45358;-73
2023/01/13 02:12:31;;;;;;;;;0.00;0.00;;;;;;;;4919506;28;45373;-73
2023/01/13 02:14:59;;;;;;;;;0.00;0.00;;;;;;;;4919570;28;45303;-73
2023/01/13 02:17:42;;;;;;;;;0.00;0.00;;;;;;;;4919307;28;45698;-73
2023/01/13 02:20:10;;;;;;;;;0.00;0.00;;;;;;;;4919135;28;45507;-73
2023/01/13 02:22:38;;;;;;;;;1.75;0.00;;;;;;;;4919297;28;45384;-73
2023/01/13 02:25:22;;;;;;;;;1.00;0.00;;;;;;;;4919007;28;45441;-73
2023/01/13 02:27:56;;;;;;;;;1.00;0.00;;;;;;;;4919155;28;45540;-73
2023/01/13 02:33:33;;;;;;;;;1.75;0.75;;;;;;;;4918986;28;45389;-73
2023/01/13 02:36:05;;;;;;;;;0.00;0.00;;;;;;;;4919443;28;45502;-73
2023/01/13 02:38:36;;;;;;;;;0.75;0.00;;;;;;;;4919086;28;45455;-73
2023/01/13 02:44:06;;;;;;;;;0.00;0.00;;;;;;;;4897857;29;45530;-73
2023/01/13 02:46:38;;;;;;;;;0.25;0.00;;;;;;;;4897835;29;45419;-73
2023/01/13 02:49:06;;;;;;;;;0.00;0.00;;;;;;;;4897881;29;45399;-74
2023/01/13 02:51:31;;;;;;;;;0.00;0.00;;;;;;;;4897651;29;46700;-73
2023/01/13 02:54:02;;;;;;;;;0.00;0.00;;;;;;;;4897279;29;45395;-73
2023/01/13 02:56:29;;;;;;;;;0.00;0.00;;;;;;;;4897715;29;45403;-73
2023/01/13 02:58:56;;;;;;;;;0.00;0.00;;;;;;;;4897808;29;45463;-73
2023/01/13 03:01:21;;;;;;;;;0.00;0.00;;;;;;;;4881240;29;45672;-73
2023/01/13 03:03:48;;;;;;;;;0.00;0.00;;;;;;;;4897606;29;45467;-73
2023/01/13 03:06:20;;;;;;;;;0.25;0.25;;;;;;;;4881712;29;45363;-73
2023/01/13 03:08:49;;;;;;;;;1.00;0.00;;;;;;;;4897479;29;45473;-73
2023/01/13 03:11:18;;;;;;;;;0.00;0.00;;;;;;;;4897452;29;45938;-73
2023/01/13 03:13:59;;;;;;;;;0.00;0.00;;;;;;;;4897127;29;45384;-74
2023/01/13 03:16:39;;;;;;;;;0.00;0.00;;;;;;;;4898432;29;45523;-73
2023/01/13 03:19:12;;;;;;;;;0.00;0.00;;;;;;;;4898270;29;45858;-73
2023/01/13 03:21:53;;;;;;;;;0.00;0.00;;;;;;;;4914820;28;47268;-73
2023/01/13 03:24:18;;;;;;;;;0.25;0.00;;;;;;;;4919635;28;45450;-74
2023/01/13 03:26:52;;;;;;;;;0.00;0.00;;;;;;;;4918760;28;45713;-73
2023/01/13 03:29:24;;;;;;;;;1.00;0.00;;;;;;;;4918020;28;45405;-73
2023/01/13 03:31:56;;;;;;;;;1.25;0.00;;;;;;;;4918510;28;46301;-73
2023/01/13 03:34:23;;;;;;;;;1.25;0.25;;;;;;;;4918209;28;45421;-73
2023/01/13 03:36:49;;;;;;;;;1.00;0.00;;;;;;;;4918386;28;45273;-74
2023/01/13 03:39:18;;;;;;;;;1.00;0.00;;;;;;;;4918209;28;45302;-73
2023/01/13 03:41:48;;;;;;;;;0.00;0.00;;;;;;;;4918229;28;46640;-74
2023/01/13 03:44:26;;;;;;;;;1.00;0.00;;;;;;;;4918151;28;45426;-73
2023/01/13 03:47:01;;;;;;;;;0.00;0.00;;;;;;;;4918191;28;45346;-73
2023/01/13 03:49:30;;;;;;;;;0.50;0.00;;;;;;;;4918218;28;45433;-75
2023/01/13 03:51:57;;;;;;;;;0.75;0.00;;;;;;;;4918155;28;45395;-75
2023/01/13 03:54:26;;;;;;;;;0.00;0.00;;;;;;;;4918249;28;45358;-75
2023/01/13 03:56:55;;;;;;;;;0.25;0.00;;;;;;;;4918180;28;45439;-75
2023/01/13 03:59:27;;;;;;;;;6.00;0.00;;;;;;;;4944890;28;46660;-75
2023/01/13 04:01:55;;;;;;;;;1.75;0.00;;;;;;;;4917205;28;46317;-75
2023/01/13 04:04:25;;;;;;;;;2.00;0.00;;;;;;;;4917203;28;45370;-75
2023/01/13 04:06:55;;;;;;;;;0.00;0.00;;;;;;;;4918112;28;45330;-75
2023/01/13 04:09:40;;;;;;;;;1.00;0.00;;;;;;;;4916941;28;45317;-75
2023/01/13 04:12:23;;;;;;;;;0.75;0.00;;;;;;;;4917990;28;46188;-75
2023/01/13 04:14:49;;;;;;;;;0.75;0.00;;;;;;;;4916998;28;45723;-75
2023/01/13 04:17:15;;;;;;;;;0.75;0.00;;;;;;;;4917895;28;45378;-75
2023/01/13 04:19:40;;;;;;;;;0.75;0.00;;;;;;;;4916709;28;45418;-75
2023/01/13 04:22:05;;;;;;;;;0.00;0.00;;;;;;;;4916523;28;47613;-75
2023/01/13 04:24:31;;;;;;;;;0.00;0.00;;;;;;;;4917771;28;45314;-75
2023/01/13 04:26:56;;;;;;;;;0.00;0.00;;;;;;;;4918131;28;45343;-75
2023/01/13 04:29:22;;;;;;;;;1.50;0.00;;;;;;;;4917997;28;45463;-75
2023/01/13 04:31:47;;;;;;;;;0.00;0.00;;;;;;;;4917955;28;45478;-75
2023/01/13 04:34:12;;;;;;;;;0.00;0.00;;;;;;;;4917602;28;45263;-75
2023/01/13 04:36:38;;;;;;;;;0.00;0.00;;;;;;;;4918254;28;45282;-75
2023/01/13 04:39:03;;;;;;;;;0.00;0.00;;;;;;;;4917973;28;45407;-75
2023/01/13 04:41:56;;;;;;;;;0.75;0.75;;;;;;;;4921161;28;45294;-74
2023/01/13 04:44:13;;;;;;;;;2.00;0.00;;;;;;;;4920973;28;45418;-74
2023/01/13 04:46:39;;;;;;;;;2.00;1.00;;;;;;;;4920090;28;45292;-74
2023/01/13 04:49:04;;;;;;;;;0.00;0.00;;;;;;;;4920920;28;45377;-74
2023/01/13 04:51:29;;;;;;;;;0.00;0.00;;;;;;;;4920949;28;46393;-74
2023/01/13 04:53:54;;;;;;;;;1.00;0.00;;;;;;;;4921353;28;45427;-74
2023/01/13 04:56:20;;;;;;;;;0.00;0.00;;;;;;;;4920836;28;45262;-74
2023/01/13 04:58:45;;;;;;;;;1.00;1.00;;;;;;;;4921148;28;45437;-75
2023/01/13 05:01:10;;;;;;;;;0.50;0.00;;;;;;;;4920876;28;46104;-74
2023/01/13 05:03:35;;;;;;;;;0.00;0.00;;;;;;;;4920750;28;45317;-74
2023/01/13 05:06:00;;;;;;;;;0.00;0.00;;;;;;;;4921039;28;45422;-75
2023/01/13 05:08:25;;;;;;;;;0.00;0.00;;;;;;;;4921079;28;45341;-74
2023/01/13 05:10:51;;;;;;;;;1.50;0.00;;;;;;;;4920997;28;45355;-75
2023/01/13 05:18:44;;;;;;;;;2.50;0.00;;;;;;;;4920267;28;45441;-75
2023/01/13 05:25:20;;;;;;;;;0.00;0.00;;;;;;;;4920371;28;46013;-75
2023/01/13 05:26:38;;;;;;;;;0.25;0.00;;;;;;;;4920865;28;45289;-74
2023/01/13 05:29:03;;;;;;;;;0.00;0.00;;;;;;;;4920512;28;45342;-75
2023/01/13 05:31:29;;;;;;;;;0.00;0.00;;;;;;;;4920214;28;45366;-74
2023/01/13 05:33:54;;;;;;;;;0.00;0.00;;;;;;;;4920759;28;45288;-74
2023/01/13 05:36:19;;;;;;;;;0.75;0.00;;;;;;;;4920461;28;45394;-75
2023/01/13 05:38:44;;;;;;;;;1.00;0.00;;;;;;;;4920335;28;45461;-74
2023/01/13 05:43:53;;;;;;;;;1.00;0.00;;;;;;;;4920416;28;45342;-74
2023/01/13 05:46:19;;;;;;;;;0.00;0.00;;;;;;;;4920200;28;45491;-74
2023/01/13 05:48:44;;;;;;;;;0.00;0.00;;;;;;;;4921136;28;45344;-74
2023/01/13 05:51:10;;;;;;;;;1.00;1.00;;;;;;;;4919575;28;45696;-75
2023/01/13 05:53:36;;;;;;;;;0.00;0.00;;;;;;;;4920402;28;45529;-74
2023/01/13 05:56:04;;;;;;;;;1.75;0.00;;;;;;;;4920218;28;45734;-74
2023/01/13 05:58:30;;;;;;;;;1.00;1.00;;;;;;;;4951238;28;45445;-74
2023/01/13 06:00:59;;;;;;;;;0.00;0.00;;;;;;;;4919834;28;45568;-74
2023/01/13 06:03:24;;;;;;;;;0.00;0.00;;;;;;;;4920154;28;45318;-74
2023/01/13 06:05:52;;;;;;;;;1.00;1.00;;;;;;;;4920420;28;45459;-74
2023/01/13 06:08:17;;;;;;;;;0.00;0.00;;;;;;;;4920175;28;45324;-74
2023/01/13 06:10:43;;;;;;;;;0.00;0.00;;;;;;;;4919857;28;45453;-75
2023/01/13 06:13:08;;;;;;;;;3.00;0.00;;;;;;;;4919701;28;45417;-74
2023/01/13 06:15:33;;;;;;;;;0.75;0.00;;;;;;;;4919672;28;45327;-74
2023/01/13 06:18:00;;;;;;;;;2.75;1.25;;;;;;;;4920139;28;45286;-74
2023/01/13 06:20:25;;;;;;;;;3.00;0.00;;;;;;;;4919605;28;46409;-74
2023/01/13 06:22:52;;;;;;;;;0.50;0.50;;;;;;;;4919580;28;45369;-79
2023/01/13 06:25:38;;;;;;;;;0.00;0.00;;;;;;;;4921430;28;45294;-78
2023/01/13 06:28:03;;;;;;;;;1.25;0.00;;;;;;;;4939997;28;45361;-75
2023/01/13 06:30:33;;;;;;;;;5.00;0.00;;;;;;;;4940749;28;45452;-74
2023/01/13 06:33:00;;;;;;;;;2.75;0.50;;;;;;;;4940577;28;45362;-75
2023/01/13 06:35:28;;;;;;;;;1.00;0.00;;;;;;;;4938528;28;45372;-75
2023/01/13 06:37:55;;;;;;;;;2.75;1.00;;;;;;;;4938795;28;45468;-75
2023/01/13 06:40:20;;;;;;;;;1.00;0.75;;;;;;;;4936101;28;47134;-75
2023/01/13 06:45:30;;;;;;;;;1.50;0.00;;;;;;;;4919325;28;45389;-75
2023/01/13 06:47:57;;;;;;;;;3.75;1.00;;;;;;;;4919146;28;45540;-75
2023/01/13 06:50:22;;;;;;;;;0.25;0.25;;;;;;;;4919198;28;45365;-75
2023/01/13 06:52:47;;;;;;;;;5.00;1.00;;;;;;;;4919060;28;45369;-74
2023/01/13 06:55:12;;;;;;;;;1.75;1.25;;;;;;;;4947724;28;45414;-74
2023/01/13 06:57:52;;;;;;;;;0.00;0.00;;;;;;;;4907581;28;45387;-74
2023/01/13 07:00:18;;;;;;;;;2.00;1.00;;;;;;;;4899413;28;47272;-74
2023/01/13 07:02:43;;;;;;;;;1.00;1.00;;;;;;;;4899017;28;45349;-75
2023/01/13 07:05:08;;;;;;;;;3.75;1.50;;;;;;;;4899680;28;45326;-75
2023/01/13 07:07:33;;;;;;;;;0.75;0.25;;;;;;;;4910234;28;45454;-74
2023/01/13 07:09:59;;;;;;;;;2.00;1.00;;;;;;;;4899869;29;46515;-75
2023/01/13 07:12:24;;;;;;;;;0.00;0.00;;;;;;;;4921711;28;45298;-74
2023/01/13 07:17:33;;;;;;;;;1.50;1.00;;;;;;;;4918284;28;45499;-74
2023/01/13 07:19:58;;;;;;;;;4.50;3.25;;;;;;;;4918449;28;46787;-74
2023/01/13 07:22:23;;;;;;;;;3.00;2.00;;;;;;;;4918330;28;45331;-74
2023/01/13 07:24:49;;;;;;;;;1.50;0.75;;;;;;;;4919017;28;45359;-74
2023/01/13 07:27:14;;;;;;;;;1.75;0.75;;;;;;;;4917307;28;45503;-74
2023/01/13 07:29:39;;;;;;;;;2.25;1.25;;;;;;;;4918684;28;45420;-74
2023/01/13 07:32:05;;;;;;;;;3.25;0.25;;;;;;;;4918603;28;45286;-74
2023/01/13 07:34:31;;;;;;;;;2.25;1.00;;;;;;;;4919057;28;45358;-74
2023/01/13 07:36:56;;;;;;;;;1.50;0.00;;;;;;;;4918462;28;45291;-74
2023/01/13 07:39:21;;;;;;;;;2.25;2.00;;;;;;;;4949596;28;45405;-74
2023/01/13 07:44:30;;;;;;;;;1.50;1.50;;;;;;;;4918638;28;45267;-76
2023/01/13 07:46:55;;;;;;;;;1.00;1.00;;;;;;;;4918201;28;45375;-75
2023/01/13 07:49:20;;;;;;;;;0.50;0.50;;;;;;;;4918402;28;46326;-74
2023/01/13 07:51:46;;;;;;;;;2.50;1.50;;;;;;;;4918314;28;45284;-74
2023/01/13 07:54:11;;;;;;;;;3.75;0.75;;;;;;;;4918179;28;45271;-74
2023/01/13 07:56:36;;;;;;;;;1.00;1.00;;;;;;;;4941289;28;45461;-74
2023/01/13 07:59:02;;;;;;;;;3.00;1.00;;;;;;;;4918041;28;46333;-73
2023/01/13 08:01:30;;;;;;;;;7.50;1.00;;;;;;;;4917932;28;45381;-73
2023/01/13 08:03:57;;;;;;;;;3.25;2.00;;;;;;;;4918282;28;45318;-73
2023/01/13 08:06:22;;;;;;;;;0.25;0.25;;;;;;;;4918146;28;45334;-73
2023/01/13 08:08:47;;;;;;;;;1.50;1.50;;;;;;;;4917787;28;46285;-73
2023/01/13 08:11:12;;;;;;;;;1.00;1.00;;;;;;;;4917974;28;45271;-73
2023/01/13 08:13:38;;;;;;;;;3.00;3.00;;;;;;;;4918137;28;45746;-73
2023/01/13 08:16:07;;;;;;;;;1.25;1.00;;;;;;;;4917868;28;45298;-74
2023/01/13 08:18:33;;;;;;;;;1.25;1.00;;;;;;;;4918034;28;45449;-73
2023/01/13 08:21:03;;;;;;;;;1.25;0.00;;;;;;;;4916749;28;45607;-73
2023/01/13 08:23:28;;;;;;;;;3.50;1.75;;;;;;;;4917841;28;45318;-74
2023/01/13 08:25:54;;;;;;;;;1.00;1.00;;;;;;;;4917707;28;45505;-73
2023/01/13 08:28:19;;;;;;;;;1.00;1.00;;;;;;;;4917624;28;46208;-73
2023/01/13 08:30:44;;;;;;;;;0.00;0.00;;;;;;;;4917739;28;45348;-73
2023/01/13 08:33:10;;;;;;;;;2.25;2.00;;;;;;;;4917684;28;45349;-73
2023/01/13 08:35:37;;;;;;;;;2.75;0.75;;;;;;;;4917984;28;45324;-73
2023/01/13 08:38:02;;;;;;;;;2.25;2.00;;;;;;;;4917659;28;47178;-73
2023/01/13 08:40:27;;;;;;;;;1.00;1.00;;;;;;;;4917483;28;45345;-73
2023/01/13 08:42:54;;;;;;;;;3.75;2.00;;;;;;;;4918026;28;45342;-73
2023/01/13 08:45:19;;;;;;;;;2.75;1.00;;;;;;;;4917487;28;45729;-73
2023/01/13 08:47:44;;;;;;;;;3.00;2.25;;;;;;;;4915652;28;47976;-73
2023/01/13 08:50:10;;;;;;;;;3.00;3.00;;;;;;;;4917743;28;45381;-74
2023/01/13 08:52:35;;;;;;;;;2.25;2.25;;;;;;;;4917755;28;45317;-74
2023/01/13 08:55:00;;;;;;;;;1.00;1.00;;;;;;;;4917272;28;45344;-73
2023/01/13 08:57:25;;;;;;;;;4.00;2.75;;;;;;;;4917246;28;45464;-74
2023/01/13 08:59:50;;;;;;;;;4.00;3.00;;;;;;;;4917705;28;45353;-73
2023/01/13 09:02:17;;;;;;;;;2.00;1.00;;;;;;;;4917660;28;45521;-73
2023/01/13 09:04:42;;;;;;;;;4.00;2.00;;;;;;;;4917723;28;45326;-73
2023/01/13 09:07:08;;;;;;;;;4.50;1.25;;;;;;;;4917081;28;47308;-73
2023/01/13 09:09:33;;;;;;;;;2.00;2.00;;;;;;;;4917242;28;45355;-73
2023/01/13 09:14:42;;;;;;;;;4.50;1.00;;;;;;;;4917778;28;45244;-73
2023/01/13 09:17:07;;;;;;;;;4.00;2.00;;;;;;;;4917573;28;46409;-74
2023/01/13 09:19:33;;;;;;;;;2.00;1.00;;;;;;;;4917547;28;45271;-73
2023/01/13 09:21:58;;;;;;;;;1.75;1.50;;;;;;;;4917870;28;45298;-73
2023/01/13 09:24:23;;;;;;;;;1.50;0.25;;;;;;;;4917926;28;45750;-73
2023/01/13 09:26:49;;;;;;;;;1.75;0.00;;;;;;;;4919564;28;46103;-74
2023/01/13 09:29:14;;;;;;;;;2.00;1.00;;;;;;;;4922625;28;45305;-73
2023/01/13 09:31:40;;;;;;;;;0.00;0.00;;;;;;;;4953612;28;45430;-73
2023/01/13 09:36:49;;;;;;;;;1.00;1.00;;;;;;;;4922314;28;45727;-74
2023/01/13 09:39:15;;;;;;;;;1.25;1.00;;;;;;;;4920209;28;45426;-73
2023/01/13 09:44:35;;;;;;;;;0.00;0.00;;;;;;;;4920301;28;45352;-73
2023/01/13 09:47:02;;;;;;;;;1.00;1.00;;;;;;;;4919865;28;45513;-73
2023/01/13 09:49:33;;;;;;;;;1.00;0.25;;;;;;;;4918808;28;45406;-73
2023/01/13 09:52:20;;;;;;;;;2.00;1.00;;;;;;;;4920224;28;45437;-73
2023/01/13 09:54:57;;;;;;;;;1.00;1.00;;;;;;;;4919975;28;45398;-73
2023/01/13 09:57:26;;;;;;;;;2.00;0.75;;;;;;;;4919771;28;45553;-74
2023/01/13 09:59:51;;;;;;;;;1.25;1.00;;;;;;;;4920069;28;45363;-74
2023/01/13 10:02:25;;;;;;;;;1.00;0.00;;;;;;;;4918525;28;45310;-73
2023/01/13 10:05:03;;;;;;;;;5.00;2.00;;;;;;;;4920081;28;45389;-74
2023/01/13 10:07:29;;;;;;;;;4.00;2.00;;;;;;;;4919568;28;45275;-73
2023/01/13 10:09:56;;;;;;;;;0.25;0.00;;;;;;;;4919586;28;45366;-73
2023/01/13 10:15:16;;;;;;;;;4.25;2.75;;;;;;;;4919774;28;45447;-75
2023/01/13 10:17:49;;;;;;;;;4.00;2.00;;;;;;;;4919470;28;45574;-74
2023/01/13 10:20:21;;;;;;;;;3.00;1.75;;;;;;;;4950355;28;45437;-74
2023/01/13 10:22:50;;;;;;;;;2.00;1.00;;;;;;;;4919301;28;45440;-75
2023/01/13 10:25:21;;;;;;;;;2.25;0.75;;;;;;;;4937247;28;45332;-75
2023/01/13 10:27:48;;;;;;;;;2.50;1.00;;;;;;;;4938205;28;47128;-75
2023/01/13 10:30:20;;;;;;;;;0.00;0.00;;;;;;;;4938354;28;45431;-74
2023/01/13 10:32:56;;;;;;;;;0.75;0.75;;;;;;;;4938760;28;45392;-74
2023/01/13 10:35:40;;;;;;;;;1.00;1.00;;;;;;;;4938900;28;45341;-75
2023/01/13 10:38:14;;;;;;;;;0.00;0.00;;;;;;;;4969808;28;45649;-75
2023/01/13 10:40:45;;;;;;;;;1.75;1.00;;;;;;;;4938387;28;45342;-75
2023/01/13 10:43:10;;;;;;;;;2.25;1.00;;;;;;;;4938574;28;45333;-74
2023/01/13 10:45:36;;;;;;;;;1.00;1.00;;;;;;;;4938414;28;45295;-74
2023/01/13 10:48:06;;;;;;;;;0.75;0.00;;;;;;;;4938503;28;45939;-75
2023/01/13 10:50:34;;;;;;;;;1.00;1.00;;;;;;;;4938517;28;45400;-75
2023/01/13 10:53:14;;;;;;;;;1.00;1.00;;;;;;;;4938398;28;45542;-73
2023/01/13 10:55:40;;;;;;;;;1.50;0.25;;;;;;;;4969631;28;45454;-73
2023/01/13 10:58:13;;;;;;;;;0.67;0.00;;;;;;;;4969279;28;45933;-73
2023/01/13 11:00:38;;;;;;;;;0.67;0.00;;;;;;;;4938593;28;45405;-73
2023/01/13 11:03:12;;;;;;;;;0.50;0.00;;;;;;;;4938003;28;45328;-73
2023/01/13 11:05:37;;;;;;;;;0.00;0.00;;;;;;;;4938188;28;45377;-73
2023/01/13 11:08:03;;;;;;;;;0.25;0.25;;;;;;;;4937929;28;46212;-73
2023/01/13 11:10:31;;;;;;;;;5.00;1.00;;;;;;;;4938117;28;45356;-73
2023/01/13 11:12:58;;;;;;;;;2.75;1.00;;;;;;;;4939235;28;45306;-75
2023/01/13 11:15:42;;;;;;;;;2.00;1.00;;;;;;;;4939051;28;45294;-75
2023/01/13 11:18:13;;;;;;;;;2.00;1.00;;;;;;;;4938236;28;45354;-73
2023/01/13 11:20:41;;;;;;;;;1.00;1.00;;;;;;;;4937748;28;45381;-73
2023/01/13 11:23:12;;;;;;;;;0.75;0.75;;;;;;;;4931009;28;45563;-73
2023/01/13 11:25:43;;;;;;;;;1.50;1.00;;;;;;;;4919282;28;45525;-74
2023/01/13 11:28:23;;;;;;;;;3.25;1.25;;;;;;;;4918811;28;45526;-74
2023/01/13 11:30:53;;;;;;;;;3.00;1.25;;;;;;;;4918755;28;45305;-74
2023/01/13 11:33:27;;;;;;;;;0.00;0.00;;;;;;;;4919304;28;46151;-74
2023/01/13 11:36:07;;;;;;;;;1.00;1.00;;;;;;;;4919865;28;45283;-75
2023/01/13 11:38:48;;;;;;;;;1.50;1.50;;;;;;;;4918771;28;45398;-75
2023/01/13 11:41:19;;;;;;;;;3.00;1.50;;;;;;;;4918385;28;45346;-75
2023/01/13 11:43:44;;;;;;;;;7.25;3.00;;;;;;;;4918438;28;45410;-74
2023/01/13 11:46:09;;;;;;;;;1.75;1.25;;;;;;;;4918471;28;45289;-74
2023/01/13 11:48:36;;;;;;;;;1.00;1.00;;;;;;;;4916962;28;45375;-74
2023/01/13 11:51:05;;;;;;;;;0.50;0.00;;;;;;;;4918649;28;45330;-75
2023/01/13 11:53:48;;;;;;;;;3.75;2.25;;;;;;;;4919097;28;45331;-75
2023/01/13 11:56:23;;;;;;;;;1.25;1.25;;;;;;;;4918405;28;45557;-74
2023/01/13 11:58:51;;;;;;;;;0.00;0.00;;;;;;;;4918726;28;46033;-74
2023/01/13 12:01:42;;;;;;;;;1.00;1.00;;;;;;;;4917708;28;45430;-74
2023/01/13 12:04:07;;;;;;;;;3.67;1.00;;;;;;;;4917872;28;45386;-74
2023/01/13 12:06:37;;;;;;;;;1.00;1.00;;;;;;;;4917759;28;45572;-74
2023/01/13 12:09:14;;;;;;;;;4.50;2.75;;;;;;;;4918164;28;46732;-75
2023/01/13 12:14:35;;;;;;;;;0.00;0.00;;;;;;;;4918069;28;45409;-74
2023/01/13 12:17:02;;;;;;;;;0.00;0.00;;;;;;;;4948606;28;45297;-74
2023/01/13 12:19:28;;;;;;;;;5.00;2.00;;;;;;;;4917607;28;46458;-76
2023/01/13 12:22:12;;;;;;;;;0.75;0.00;;;;;;;;4918453;28;45258;-74
2023/01/13 12:24:37;;;;;;;;;2.25;1.00;;;;;;;;4918197;28;45327;-74
2023/01/13 12:27:07;;;;;;;;;0.75;0.75;;;;;;;;4917936;28;45198;-76
2023/01/13 12:29:34;;;;;;;;;1.75;0.50;;;;;;;;4917947;28;46268;-75
2023/01/13 12:32:02;;;;;;;;;1.00;1.00;;;;;;;;4917878;28;45441;-75
2023/01/13 12:34:35;;;;;;;;;0.75;0.75;;;;;;;;4919088;28;45411;-73
2023/01/13 12:37:01;;;;;;;;;2.75;0.00;;;;;;;;4919429;28;45413;-75
2023/01/13 12:39:38;;;;;;;;;0.00;0.00;;;;;;;;4918581;28;45961;-75
2023/01/13 12:45:06;;;;;;;;;2.75;1.00;;;;;;;;4920933;28;45393;-73
2023/01/13 12:47:34;;;;;;;;;1.00;0.75;;;;;;;;4920149;28;45398;-73
2023/01/13 12:50:18;;;;;;;;;1.50;1.50;;;;;;;;4920886;28;45398;-72
2023/01/13 12:52:44;;;;;;;;;2.00;1.00;;;;;;;;4918202;28;45334;-73
2023/01/13 12:55:12;;;;;;;;;1.50;1.50;;;;;;;;4917979;28;45342;-73
2023/01/13 12:57:38;;;;;;;;;1.75;1.75;;;;;;;;4918116;28;45634;-73
2023/01/13 13:00:03;;;;;;;;;0.75;0.75;;;;;;;;4936568;28;46436;-73
2023/01/13 13:02:31;;;;;;;;;1.25;0.00;;;;;;;;4938400;28;45390;-74
2023/01/13 13:04:59;;;;;;;;;1.67;1.00;;;;;;;;4939320;28;45472;-73
2023/01/13 13:07:31;;;;;;;;;1.00;1.00;;;;;;;;4939573;28;45456;-73
2023/01/13 13:10:15;;;;;;;;;2.25;1.00;;;;;;;;4939854;28;47337;-73
2023/01/13 13:15:26;;;;;;;;;3.75;1.50;;;;;;;;4939781;28;45349;-73
2023/01/13 13:18:09;;;;;;;;;6.50;2.75;;;;;;;;4938962;28;45354;-73
2023/01/13 13:20:53;;;;;;;;;4.25;4.00;;;;;;;;4939377;28;45385;-74
2023/01/13 13:23:28;;;;;;;;;0.00;0.00;;;;;;;;4931050;28;45352;-74
2023/01/13 13:26:11;;;;;;;;;1.25;1.25;;;;;;;;4920587;28;45436;-75
2023/01/13 13:28:40;;;;;;;;;1.00;1.00;;;;;;;;4920826;28;45278;-75
2023/01/13 13:31:28;;;;;;;;;2.00;1.75;;;;;;;;4919448;28;46471;-75
2023/01/13 13:34:05;;;;;;;;;3.00;2.00;;;;;;;;4920709;28;45371;-74
2023/01/13 13:36:31;;;;;;;;;2.50;2.50;;;;;;;;4920663;28;45352;-73
2023/01/13 13:47:35;;;;;;;;;2.75;0.25;;;;;;;;4920232;28;45366;-75
2023/01/13 13:50:05;;;;;;;;;2.00;1.00;;;;;;;;4920223;28;45330;-75
2023/01/13 13:53:04;;;;;;;;;4.25;2.50;;;;;;;;4919917;28;45383;-75
2023/01/13 13:55:30;;;;;;;;;1.00;1.00;;;;;;;;4936072;28;45381;-75
2023/01/13 13:57:56;;;;;;;;;2.00;2.00;;;;;;;;4908640;28;45815;-74
2023/01/13 14:00:26;;;;;;;;;3.50;2.50;;;;;;;;4917058;28;45401;-74
2023/01/13 14:03:01;;;;;;;;;8.75;8.75;;;;;;;;4900792;28;48500;-73
2023/01/13 14:05:28;;;;;;;;;11.25;8.25;;;;;;;;4916633;28;45379;-73
2023/01/13 14:07:59;;;;;;;;;5.75;5.00;;;;;;;;4917231;28;45505;-73
2023/01/13 14:10:34;;;;;;;;;6.00;6.00;;;;;;;;4916790;28;45425;-73
2023/01/13 14:13:02;;;;;;;;;16.00;14.25;;;;;;;;4901208;28;45417;-73
2023/01/13 14:15:30;;;;;;;;;17.50;16.50;;;;;;;;4916233;28;45438;-73
2023/01/13 14:17:55;;;;;;;;;19.00;16.50;;;;;;;;4917162;28;45401;-73
2023/01/13 14:20:21;;;;;;;;;10.50;9.25;;;;;;;;4900228;28;45485;-74
2023/01/13 14:22:47;;;;;;;;;34.25;31.50;;;;;;;;4915225;28;46236;-73
2023/01/13 14:25:32;;;;;;;;;18.50;15.50;;;;;;;;4904220;28;45398;-74
2023/01/13 14:27:59;;;;;;;;;4.00;3.00;;;;;;;;4916405;28;45395;-74
2023/01/13 14:30:25;;;;;;;;;8.50;5.50;;;;;;;;4916273;28;45434;-74
2023/01/13 14:32:51;;;;;;;;;12.50;10.75;;;;;;;;4917908;28;47160;-74
2023/01/13 14:35:17;;;;;;;;;7.00;5.00;;;;;;;;4949554;28;45531;-74
2023/01/13 14:37:42;;;;;;;;;3.00;2.00;;;;;;;;4918538;28;45378;-74
2023/01/13 14:40:26;;;;;;;;;1.00;1.00;;;;;;;;4918723;28;45349;-74
2023/01/13 14:42:58;;;;;;;;;2.50;2.00;;;;;;;;4918229;28;47417;-75
2023/01/13 14:45:24;;;;;;;;;3.00;1.00;;;;;;;;4918511;28;45790;-73
2023/01/13 14:47:51;;;;;;;;;1.00;1.00;;;;;;;;4918658;28;45281;-74
2023/01/13 14:50:19;;;;;;;;;1.75;1.00;;;;;;;;4918516;28;45450;-73
2023/01/13 14:52:56;;;;;;;;;4.75;4.00;;;;;;;;4918411;28;46008;-75
2023/01/13 14:55:24;;;;;;;;;5.75;3.00;;;;;;;;4917974;28;45422;-75
2023/01/13 14:57:49;;;;;;;;;4.25;2.00;;;;;;;;4917773;28;45283;-74
2023/01/13 15:00:14;;;;;;;;;3.75;2.00;;;;;;;;4917378;28;45659;-75
2023/01/13 15:02:52;;;;;;;;;3.00;2.00;;;;;;;;4917961;28;46262;-75
2023/01/13 15:05:23;;;;;;;;;5.50;3.50;;;;;;;;4918997;28;45540;-74
2023/01/13 15:07:55;;;;;;;;;4.25;1.25;;;;;;;;4917903;28;45434;-75
2023/01/13 15:10:22;;;;;;;;;3.50;1.25;;;;;;;;4948875;28;45597;-75
2023/01/13 15:12:49;;;;;;;;;2.25;2.00;;;;;;;;4917604;28;45471;-74
2023/01/13 15:15:19;;;;;;;;;2.75;2.75;;;;;;;;4918132;28;45370;-74
2023/01/13 15:17:48;;;;;;;;;1.00;0.50;;;;;;;;4918105;28;45377;-74
2023/01/13 15:20:15;;;;;;;;;3.50;1.75;;;;;;;;4917676;28;45342;-74
2023/01/13 15:22:41;;;;;;;;;5.25;3.00;;;;;;;;4917116;28;47161;-74
2023/01/13 15:25:08;;;;;;;;;2.00;1.00;;;;;;;;4947272;28;45308;-74
2023/01/13 15:27:33;;;;;;;;;1.75;1.00;;;;;;;;4917217;28;45357;-74
2023/01/13 15:29:58;;;;;;;;;2.00;1.00;;;;;;;;4916151;28;45570;-74
2023/01/13 15:32:23;;;;;;;;;1.75;0.00;;;;;;;;4917414;28;46168;-74
2023/01/13 15:34:51;;;;;;;;;3.25;2.00;;;;;;;;4917921;28;45402;-74
2023/01/13 15:37:18;;;;;;;;;4.00;2.75;;;;;;;;4918191;28;45365;-74
2023/01/13 15:39:43;;;;;;;;;1.00;1.00;;;;;;;;4917645;28;45350;-75
2023/01/13 15:47:40;;;;;;;;;3.25;3.25;;;;;;;;4917459;28;45377;-75
2023/01/13 15:50:05;;;;;;;;;3.00;1.75;;;;;;;;4917487;28;45382;-75
2023/01/13 15:52:30;;;;;;;;;8.00;4.50;;;;;;;;4917865;28;46246;-75
2023/01/13 15:54:56;;;;;;;;;4.25;4.00;;;;;;;;4918075;28;45271;-75